Gumspring, Virginia
Current Conditions -  °F | °C
As of 10:15 PM on Thursday 27 Nov 2014 (Local Time) from K7W4 Reporting Station
Clear Clear  
Wind Chill: 32°   Ceiling: Unl
Heat Index: 32°   Visibility: 10mi
Dew Point: 27°   Wind: 0mph
Humidity: 80%   Direction: NA
Pressure: 30.19"   Gusts: NA
Location:  37.809°N, 77.9185°W
Report Text: K7W4 280315Z AUTO 00000KT 10SM CLR 00/M03 A3019 RMK AO1 T00001030
Loading
Personal Weather Stations






























Interactive Weather Map New forecast layout! Learn more

10-Day Weather Forecast

Advertisements
Track Severe Weather on mobile